Springsure, Queensland

12:29 AM AEST on June 04, 2015 (GMT +1000)
Emerald | | Change Station
CLOSE
Current Station
Airport
Location: Emerald Airport,
Elevation: 623 ft
Nearby Weather Stations

Elev 623 ft 23.57 °S, 148.18 °E | Updated 29 minutes ago

Clear
Clear
52 °F
Feels Like 52 °F
N
5
Wind Variable Wind from South

Today
High -- | Low -- °F
--% Chance of Precip.
Yesterday
High -- | Low -- °F
Precip. -- in
6:44 AM 5:27 PM
Full, 99% visible
Pressure 30.12 in
Visibility 6.2 miles
Clouds
Dew Point 28 °F
Humidity 41%
Rainfall 0.00 in
Snow Depth Not available.
UV Not available.
Pollen Not available.
Air Quality Not available.
Flu Activity Not available.
METAR YEML 031400Z AUTO 18004KT 9999 // NCD 11/M02 Q1020

More Conditions Fewer Conditions

Pressure 30.12 in
Visibility 6.2 miles
Clouds
Dew Point 28 °F
Humidity 41%
Rainfall 0.00 in
Snow Depth Not available.
UV Not available.
Pollen Not available.
Air Quality Not available.
Flu Activity Not available.
METAR YEML 031400Z AUTO 18004KT 9999 // NCD 11/M02 Q1020

More Conditions Fewer Conditions

10-Day Weather Forecast

×

Almanac

Astronomy

Jun. 04, 2015 Rise Set
Actual Time
Civil Twilight
Nautical Twilight
Astronomical Twilight
Moon
Length of Visible Light
Length of Day
Tomorrow will be .
, % of the Moon is Illuminated

Today's Extremes

Country Highs Country Lows

Community

WunderPhotos

Upload Photos

1,826,229 photos uploaded!

WunderBlogs® & News

Nearby

Air Quality

  Air Quality AQ Index Pollutant
Not available.

Snow Depth

Station Depth Elevation

Earthquake Activity

City Distance Mag. Time & Date
Minimum magnitude displayed is 2.5.

Coastal Water Temperatures

Place Temperature

Stations

Nearby Weather Stations

Station Location Temp. Windchill Dew Point Humidity Wind Precip. Elev Updated Type